Hovedside
METAR-TAF:

METAR-TAF

Lufthavner :

Vitebsk, Hviterussland

breddegrad: 55-10N, lengdegrad: 030-13E, høyde over havet: 176 m

Gjeldene værobservasjon

Denne rapporten ble laget for 58 minutter siden, klokken 11:00 UTC
Flau vind
Temperatur 3°C
Luftfuktighet 56%
Trykk 1020 hPa
Sikt 10 km eller mer
Få skyer i en høyde av 3000 ft

METAR: UMII 221100Z 00000MPS 9999 FEW030 03/M05 Q1020 NOSIG

Tid: 14:58 (11:58 UTC)

Varsel

Denne rapporten ble laget for 53 minutter siden, klokken 11:05 UTC
Varsel gyldig fra 22. klokken 12 UTC til 22. klokken 21 UTC
Vind 6 kt fra Øst-nordøst
Sikt 10 km eller mer
Brutte skyer i en høyde av 2000 ft
Midlertidig
fra 22. klokken 15 UTC til 22. klokken 21 UTC
Sikt: 2000 m
Spredte skyer i en høyde av 500 ft
dis

TAF: UMII 221105Z 2212/2221 06003MPS 9999 BKN020 TEMPO 2215/2221 2000 BR SCT005

Værobservasjoner og værvarsel for over 4000 flyplasser (METAR- og TAF-rapporter).

Tilgjengelige stasjoner er representert av de røde og gule prikkene på kartet.

Hold musepekeren over prikken for å se navnet på stasjonen.

Klikk så for å se værobservasjoner og -varsler.

For å forandre kartet kan du klikke på den grønne knappen med svart kryss for å zoome inn, på den grønne knappen med strek for å zoome ut, eller på de grønne pilene for å se tilstøtende kart.


METAR-TAF: